sensor_id;sensor_type;location;lat;lon;timestamp;temperature;humidity
12853;DHT22;6495;51.808;7.478;2023-05-29T00:00:25;14.70;79.10
12853;DHT22;6495;51.808;7.478;2023-05-29T00:03:22;14.60;79.80
12853;DHT22;6495;51.808;7.478;2023-05-29T00:05:50;14.60;79.40
12853;DHT22;6495;51.808;7.478;2023-05-29T00:08:19;14.40;80.00
12853;DHT22;6495;51.808;7.478;2023-05-29T00:10:49;14.40;79.70
12853;DHT22;6495;51.808;7.478;2023-05-29T00:13:20;14.30;79.80
12853;DHT22;6495;51.808;7.478;2023-05-29T00:15:48;14.20;80.00
12853;DHT22;6495;51.808;7.478;2023-05-29T00:18:33;14.20;80.60
12853;DHT22;6495;51.808;7.478;2023-05-29T00:21:34;14.10;80.30
12853;DHT22;6495;51.808;7.478;2023-05-29T00:24:17;14.00;81.10
12853;DHT22;6495;51.808;7.478;2023-05-29T00:26:48;13.90;80.60
12853;DHT22;6495;51.808;7.478;2023-05-29T00:29:16;13.90;81.20
12853;DHT22;6495;51.808;7.478;2023-05-29T00:31:44;13.80;80.70
12853;DHT22;6495;51.808;7.478;2023-05-29T00:34:17;13.80;80.90
12853;DHT22;6495;51.808;7.478;2023-05-29T00:36:46;13.70;81.00
12853;DHT22;6495;51.808;7.478;2023-05-29T00:39:29;13.70;81.10
12853;DHT22;6495;51.808;7.478;2023-05-29T00:42:01;13.60;81.70
12853;DHT22;6495;51.808;7.478;2023-05-29T00:44:29;13.50;82.00
12853;DHT22;6495;51.808;7.478;2023-05-29T00:46:57;13.50;81.60
12853;DHT22;6495;51.808;7.478;2023-05-29T00:49:26;13.40;82.30
12853;DHT22;6495;51.808;7.478;2023-05-29T00:51:54;13.40;81.80
12853;DHT22;6495;51.808;7.478;2023-05-29T00:54:54;13.40;81.90
12853;DHT22;6495;51.808;7.478;2023-05-29T00:57:29;13.40;82.10
12853;DHT22;6495;51.808;7.478;2023-05-29T00:59:58;13.30;82.10
12853;DHT22;6495;51.808;7.478;2023-05-29T01:02:30;13.20;82.90
12853;DHT22;6495;51.808;7.478;2023-05-29T01:04:59;13.20;82.90
12853;DHT22;6495;51.808;7.478;2023-05-29T01:07:28;13.10;83.30
12853;DHT22;6495;51.808;7.478;2023-05-29T01:09:57;13.10;83.00
12853;DHT22;6495;51.808;7.478;2023-05-29T01:12:38;13.10;84.60
12853;DHT22;6495;51.808;7.478;2023-05-29T01:15:28;13.00;83.80
12853;DHT22;6495;51.808;7.478;2023-05-29T01:18:12;13.00;84.60
12853;DHT22;6495;51.808;7.478;2023-05-29T01:20:52;12.90;84.80
12853;DHT22;6495;51.808;7.478;2023-05-29T01:27:21;12.80;85.80
12853;DHT22;6495;51.808;7.478;2023-05-29T01:29:55;12.80;84.90
12853;DHT22;6495;51.808;7.478;2023-05-29T01:32:24;12.70;85.40
12853;DHT22;6495;51.808;7.478;2023-05-29T01:35:13;12.70;85.40
12853;DHT22;6495;51.808;7.478;2023-05-29T01:37:42;12.70;86.20
12853;DHT22;6495;51.808;7.478;2023-05-29T01:40:11;12.60;85.90
12853;DHT22;6495;51.808;7.478;2023-05-29T01:42:41;12.60;86.20
12853;DHT22;6495;51.808;7.478;2023-05-29T01:45:10;12.60;86.50
12853;DHT22;6495;51.808;7.478;2023-05-29T01:47:40;12.60;86.90
12853;DHT22;6495;51.808;7.478;2023-05-29T01:50:09;12.60;88.20
12853;DHT22;6495;51.808;7.478;2023-05-29T01:52:39;12.50;87.30
12853;DHT22;6495;51.808;7.478;2023-05-29T01:55:08;12.50;87.10
12853;DHT22;6495;51.808;7.478;2023-05-29T01:57:37;12.40;87.90
12853;DHT22;6495;51.808;7.478;2023-05-29T02:00:21;12.40;87.70
12853;DHT22;6495;51.808;7.478;2023-05-29T02:02:50;12.40;87.80
12853;DHT22;6495;51.808;7.478;2023-05-29T02:05:19;12.40;88.30
12853;DHT22;6495;51.808;7.478;2023-05-29T02:07:48;12.30;89.00
12853;DHT22;6495;51.808;7.478;2023-05-29T02:10:16;12.30;88.80
12853;DHT22;6495;51.808;7.478;2023-05-29T02:12:44;12.30;89.00
12853;DHT22;6495;51.808;7.478;2023-05-29T02:15:13;12.30;89.10
12853;DHT22;6495;51.808;7.478;2023-05-29T02:17:42;12.20;89.10
12853;DHT22;6495;51.808;7.478;2023-05-29T02:20:11;12.20;89.40
12853;DHT22;6495;51.808;7.478;2023-05-29T02:22:39;12.20;89.60
12853;DHT22;6495;51.808;7.478;2023-05-29T02:25:24;12.20;89.60
12853;DHT22;6495;51.808;7.478;2023-05-29T02:28:08;12.20;89.70
12853;DHT22;6495;51.808;7.478;2023-05-29T02:30:39;12.10;90.10
12853;DHT22;6495;51.808;7.478;2023-05-29T02:33:09;12.10;90.40
12853;DHT22;6495;51.808;7.478;2023-05-29T02:35:38;12.10;90.40
12853;DHT22;6495;51.808;7.478;2023-05-29T02:38:06;12.10;90.70
12853;DHT22;6495;51.808;7.478;2023-05-29T02:40:34;12.00;91.20
12853;DHT22;6495;51.808;7.478;2023-05-29T02:43:02;12.00;91.00
12853;DHT22;6495;51.808;7.478;2023-05-29T02:45:30;12.00;90.80
12853;DHT22;6495;51.808;7.478;2023-05-29T02:47:59;12.00;91.10
12853;DHT22;6495;51.808;7.478;2023-05-29T02:50:29;12.00;91.10
12853;DHT22;6495;51.808;7.478;2023-05-29T02:52:57;11.90;91.10
12853;DHT22;6495;51.808;7.478;2023-05-29T02:55:25;11.90;91.30
12853;DHT22;6495;51.808;7.478;2023-05-29T02:58:07;11.90;91.50
12853;DHT22;6495;51.808;7.478;2023-05-29T03:00:35;11.80;91.80
12853;DHT22;6495;51.808;7.478;2023-05-29T03:03:04;11.80;91.90
12853;DHT22;6495;51.808;7.478;2023-05-29T03:05:33;11.80;91.90
12853;DHT22;6495;51.808;7.478;2023-05-29T03:08:02;11.80;92.30
12853;DHT22;6495;51.808;7.478;2023-05-29T03:10:30;11.70;92.20
12853;DHT22;6495;51.808;7.478;2023-05-29T03:12:58;11.70;92.50
12853;DHT22;6495;51.808;7.478;2023-05-29T03:15:51;11.70;92.80
12853;DHT22;6495;51.808;7.478;2023-05-29T03:18:44;11.70;92.70
12853;DHT22;6495;51.808;7.478;2023-05-29T03:21:16;11.70;93.30
12853;DHT22;6495;51.808;7.478;2023-05-29T03:23:59;11.70;93.20
12853;DHT22;6495;51.808;7.478;2023-05-29T03:26:28;11.70;93.30
12853;DHT22;6495;51.808;7.478;2023-05-29T03:28:57;11.70;93.30
12853;DHT22;6495;51.808;7.478;2023-05-29T03:31:41;11.70;93.50
12853;DHT22;6495;51.808;7.478;2023-05-29T03:34:10;11.70;93.90
12853;DHT22;6495;51.808;7.478;2023-05-29T03:36:45;11.70;93.60
12853;DHT22;6495;51.808;7.478;2023-05-29T03:39:14;11.60;93.70
12853;DHT22;6495;51.808;7.478;2023-05-29T03:41:42;11.60;93.60
12853;DHT22;6495;51.808;7.478;2023-05-29T03:44:11;11.60;93.90
12853;DHT22;6495;51.808;7.478;2023-05-29T03:46:39;11.60;94.20
12853;DHT22;6495;51.808;7.478;2023-05-29T03:49:07;11.60;94.30
12853;DHT22;6495;51.808;7.478;2023-05-29T03:51:51;11.60;94.70
12853;DHT22;6495;51.808;7.478;2023-05-29T03:54:20;11.60;94.70
12853;DHT22;6495;51.808;7.478;2023-05-29T03:56:48;11.60;95.10
12853;DHT22;6495;51.808;7.478;2023-05-29T03:59:40;11.60;95.00
12853;DHT22;6495;51.808;7.478;2023-05-29T04:02:08;11.60;94.90
12853;DHT22;6495;51.808;7.478;2023-05-29T04:04:40;11.60;95.10
12853;DHT22;6495;51.808;7.478;2023-05-29T04:07:35;11.60;95.20
12853;DHT22;6495;51.808;7.478;2023-05-29T04:10:06;11.60;95.70
12853;DHT22;6495;51.808;7.478;2023-05-29T04:12:35;11.60;96.10
12853;DHT22;6495;51.808;7.478;2023-05-29T04:15:05;11.60;95.90
12853;DHT22;6495;51.808;7.478;2023-05-29T04:17:48;11.60;95.70
12853;DHT22;6495;51.808;7.478;2023-05-29T04:20:16;11.60;96.10
12853;DHT22;6495;51.808;7.478;2023-05-29T04:22:46;11.60;96.10
12853;DHT22;6495;51.808;7.478;2023-05-29T04:25:15;11.60;96.30
12853;DHT22;6495;51.808;7.478;2023-05-29T04:27:58;11.60;96.30
12853;DHT22;6495;51.808;7.478;2023-05-29T04:30:56;11.60;96.30
12853;DHT22;6495;51.808;7.478;2023-05-29T04:33:25;11.60;96.60
12853;DHT22;6495;51.808;7.478;2023-05-29T04:36:18;11.60;96.60
12853;DHT22;6495;51.808;7.478;2023-05-29T04:38:47;11.60;96.60
12853;DHT22;6495;51.808;7.478;2023-05-29T04:41:38;11.60;96.50
12853;DHT22;6495;51.808;7.478;2023-05-29T04:44:10;11.50;96.80
12853;DHT22;6495;51.808;7.478;2023-05-29T04:46:45;11.60;97.30
12853;DHT22;6495;51.808;7.478;2023-05-29T04:49:15;11.50;97.10
12853;DHT22;6495;51.808;7.478;2023-05-29T04:51:43;11.50;97.40
12853;DHT22;6495;51.808;7.478;2023-05-29T04:54:14;11.50;97.60
12853;DHT22;6495;51.808;7.478;2023-05-29T04:56:43;11.60;97.60
12853;DHT22;6495;51.808;7.478;2023-05-29T04:59:13;11.60;97.80
12853;DHT22;6495;51.808;7.478;2023-05-29T05:01:42;11.60;98.40
12853;DHT22;6495;51.808;7.478;2023-05-29T05:04:11;11.60;98.20
12853;DHT22;6495;51.808;7.478;2023-05-29T05:07:04;11.60;98.70
12853;DHT22;6495;51.808;7.478;2023-05-29T05:09:34;11.60;98.90
12853;DHT22;6495;51.808;7.478;2023-05-29T05:12:03;11.60;98.90
12853;DHT22;6495;51.808;7.478;2023-05-29T05:14:32;11.60;98.90
12853;DHT22;6495;51.808;7.478;2023-05-29T05:17:01;11.70;99.00
12853;DHT22;6495;51.808;7.478;2023-05-29T05:19:29;11.70;99.10
12853;DHT22;6495;51.808;7.478;2023-05-29T05:21:59;11.70;99.10
12853;DHT22;6495;51.808;7.478;2023-05-29T05:24:31;11.70;99.20
12853;DHT22;6495;51.808;7.478;2023-05-29T05:27:04;11.80;99.90
12853;DHT22;6495;51.808;7.478;2023-05-29T05:29:34;11.80;99.70
12853;DHT22;6495;51.808;7.478;2023-05-29T05:32:04;11.80;99.60
12853;DHT22;6495;51.808;7.478;2023-05-29T05:35:05;11.90;99.90
12853;DHT22;6495;51.808;7.478;2023-05-29T05:37:51;11.90;99.80
12853;DHT22;6495;51.808;7.478;2023-05-29T05:40:20;12.00;99.80
12853;DHT22;6495;51.808;7.478;2023-05-29T05:42:58;12.00;99.70
12853;DHT22;6495;51.808;7.478;2023-05-29T05:45:57;12.10;99.90
12853;DHT22;6495;51.808;7.478;2023-05-29T05:48:46;12.10;99.80
12853;DHT22;6495;51.808;7.478;2023-05-29T05:51:18;12.20;99.80
12853;DHT22;6495;51.808;7.478;2023-05-29T05:53:46;12.20;99.80
12853;DHT22;6495;51.808;7.478;2023-05-29T05:56:15;12.30;99.80
12853;DHT22;6495;51.808;7.478;2023-05-29T05:58:46;12.30;99.90
12853;DHT22;6495;51.808;7.478;2023-05-29T06:01:40;12.30;99.90
12853;DHT22;6495;51.808;7.478;2023-05-29T06:04:11;12.40;99.90
12853;DHT22;6495;51.808;7.478;2023-05-29T06:06:40;12.40;99.80
12853;DHT22;6495;51.808;7.478;2023-05-29T06:09:08;12.50;99.80
12853;DHT22;6495;51.808;7.478;2023-05-29T06:11:37;12.50;99.90
12853;DHT22;6495;51.808;7.478;2023-05-29T06:14:14;12.60;99.90
12853;DHT22;6495;51.808;7.478;2023-05-29T06:16:45;12.60;99.90
12853;DHT22;6495;51.808;7.478;2023-05-29T06:19:13;12.80;99.90
12853;DHT22;6495;51.808;7.478;2023-05-29T06:21:57;12.80;99.90
12853;DHT22;6495;51.808;7.478;2023-05-29T06:24:27;12.90;99.90
12853;DHT22;6495;51.808;7.478;2023-05-29T06:26:57;13.10;99.90
12853;DHT22;6495;51.808;7.478;2023-05-29T06:29:27;13.20;99.90
12853;DHT22;6495;51.808;7.478;2023-05-29T06:31:55;13.20;99.90
12853;DHT22;6495;51.808;7.478;2023-05-29T06:34:24;13.30;99.90
12853;DHT22;6495;51.808;7.478;2023-05-29T06:36:52;13.30;99.90
12853;DHT22;6495;51.808;7.478;2023-05-29T06:39:21;13.40;99.90
12853;DHT22;6495;51.808;7.478;2023-05-29T06:41:51;13.40;99.90
12853;DHT22;6495;51.808;7.478;2023-05-29T06:44:20;13.50;99.90
12853;DHT22;6495;51.808;7.478;2023-05-29T06:47:00;13.50;99.70
12853;DHT22;6495;51.808;7.478;2023-05-29T06:49:32;13.60;99.40
12853;DHT22;6495;51.808;7.478;2023-05-29T06:52:02;13.60;99.10
12853;DHT22;6495;51.808;7.478;2023-05-29T06:54:53;13.60;98.90
12853;DHT22;6495;51.808;7.478;2023-05-29T06:57:23;13.70;98.90
12853;DHT22;6495;51.808;7.478;2023-05-29T06:59:52;13.70;98.90
12853;DHT22;6495;51.808;7.478;2023-05-29T07:02:21;13.70;98.70
12853;DHT22;6495;51.808;7.478;2023-05-29T07:04:55;13.70;98.50
12853;DHT22;6495;51.808;7.478;2023-05-29T07:07:25;13.70;98.50
12853;DHT22;6495;51.808;7.478;2023-05-29T07:09:56;13.80;98.30
12853;DHT22;6495;51.808;7.478;2023-05-29T07:12:30;13.80;98.30
12853;DHT22;6495;51.808;7.478;2023-05-29T07:14:59;13.80;98.30
12853;DHT22;6495;51.808;7.478;2023-05-29T07:17:29;13.80;98.30
12853;DHT22;6495;51.808;7.478;2023-05-29T07:20:09;13.90;98.30
12853;DHT22;6495;51.808;7.478;2023-05-29T07:22:44;13.90;98.30
12853;DHT22;6495;51.808;7.478;2023-05-29T07:25:12;13.90;98.00
12853;DHT22;6495;51.808;7.478;2023-05-29T07:27:40;13.90;97.80
12853;DHT22;6495;51.808;7.478;2023-05-29T07:30:10;14.00;97.90
12853;DHT22;6495;51.808;7.478;2023-05-29T07:32:41;14.00;98.00
12853;DHT22;6495;51.808;7.478;2023-05-29T07:35:10;14.10;98.00
12853;DHT22;6495;51.808;7.478;2023-05-29T07:37:38;14.10;98.00
12853;DHT22;6495;51.808;7.478;2023-05-29T07:40:07;14.20;98.00
12853;DHT22;6495;51.808;7.478;2023-05-29T07:42:54;14.20;97.90
12853;DHT22;6495;51.808;7.478;2023-05-29T07:45:26;14.30;97.60
12853;DHT22;6495;51.808;7.478;2023-05-29T07:47:57;14.30;97.80
12853;DHT22;6495;51.808;7.478;2023-05-29T07:50:27;14.30;97.50
12853;DHT22;6495;51.808;7.478;2023-05-29T07:52:55;14.40;97.40
12853;DHT22;6495;51.808;7.478;2023-05-29T07:55:24;14.40;97.50
12853;DHT22;6495;51.808;7.478;2023-05-29T07:57:52;14.50;97.60
12853;DHT22;6495;51.808;7.478;2023-05-29T08:00:21;14.50;97.70
12853;DHT22;6495;51.808;7.478;2023-05-29T08:02:51;14.60;97.60
12853;DHT22;6495;51.808;7.478;2023-05-29T08:05:30;14.70;97.50
12853;DHT22;6495;51.808;7.478;2023-05-29T08:08:02;14.70;97.40
12853;DHT22;6495;51.808;7.478;2023-05-29T08:10:31;14.70;97.50
12853;DHT22;6495;51.808;7.478;2023-05-29T08:13:01;14.80;97.50
12853;DHT22;6495;51.808;7.478;2023-05-29T08:15:30;14.90;97.30
12853;DHT22;6495;51.808;7.478;2023-05-29T08:17:59;15.00;97.10
12853;DHT22;6495;51.808;7.478;2023-05-29T08:20:27;15.00;96.90
12853;DHT22;6495;51.808;7.478;2023-05-29T08:22:57;15.00;96.90
12853;DHT22;6495;51.808;7.478;2023-05-29T08:25:25;15.10;97.00
12853;DHT22;6495;51.808;7.478;2023-05-29T08:27:53;15.10;96.90
12853;DHT22;6495;51.808;7.478;2023-05-29T08:30:21;15.20;96.80
12853;DHT22;6495;51.808;7.478;2023-05-29T08:32:49;15.20;96.80
12853;DHT22;6495;51.808;7.478;2023-05-29T08:35:18;15.20;96.80
12853;DHT22;6495;51.808;7.478;2023-05-29T08:37:46;15.30;96.70
12853;DHT22;6495;51.808;7.478;2023-05-29T08:40:16;15.30;96.70
12853;DHT22;6495;51.808;7.478;2023-05-29T08:42:47;15.40;96.90
12853;DHT22;6495;51.808;7.478;2023-05-29T08:45:18;15.40;96.80
12853;DHT22;6495;51.808;7.478;2023-05-29T08:47:52;15.50;96.80
12853;DHT22;6495;51.808;7.478;2023-05-29T08:50:23;15.60;96.40
12853;DHT22;6495;51.808;7.478;2023-05-29T08:53:01;15.60;96.20
12853;DHT22;6495;51.808;7.478;2023-05-29T08:55:33;15.60;96.10
12853;DHT22;6495;51.808;7.478;2023-05-29T08:58:02;15.60;95.90
12853;DHT22;6495;51.808;7.478;2023-05-29T09:00:34;15.60;95.80
12853;DHT22;6495;51.808;7.478;2023-05-29T09:03:10;15.60;95.60
12853;DHT22;6495;51.808;7.478;2023-05-29T09:05:40;15.60;95.60
12853;DHT22;6495;51.808;7.478;2023-05-29T09:08:10;15.60;95.70
12853;DHT22;6495;51.808;7.478;2023-05-29T09:10:43;15.60;95.90
12853;DHT22;6495;51.808;7.478;2023-05-29T09:13:13;15.70;96.30
12853;DHT22;6495;51.808;7.478;2023-05-29T09:15:41;15.80;96.20
12853;DHT22;6495;51.808;7.478;2023-05-29T09:18:11;15.90;96.20
12853;DHT22;6495;51.808;7.478;2023-05-29T09:20:39;16.00;96.20
12853;DHT22;6495;51.808;7.478;2023-05-29T09:23:11;16.10;96.10
12853;DHT22;6495;51.808;7.478;2023-05-29T09:25:41;16.10;95.90
12853;DHT22;6495;51.808;7.478;2023-05-29T09:28:10;16.10;95.50
12853;DHT22;6495;51.808;7.478;2023-05-29T09:30:39;16.20;95.50
12853;DHT22;6495;51.808;7.478;2023-05-29T09:33:10;16.20;95.40
12853;DHT22;6495;51.808;7.478;2023-05-29T09:35:41;16.30;95.40
12853;DHT22;6495;51.808;7.478;2023-05-29T09:38:12;16.30;95.40
12853;DHT22;6495;51.808;7.478;2023-05-29T09:41:05;16.40;95.40
12853;DHT22;6495;51.808;7.478;2023-05-29T09:43:34;16.40;95.30
12853;DHT22;6495;51.808;7.478;2023-05-29T09:46:06;16.40;95.20
12853;DHT22;6495;51.808;7.478;2023-05-29T09:48:35;16.50;95.20
12853;DHT22;6495;51.808;7.478;2023-05-29T09:51:03;16.50;95.00
12853;DHT22;6495;51.808;7.478;2023-05-29T09:53:32;16.50;95.00
12853;DHT22;6495;51.808;7.478;2023-05-29T09:56:01;16.50;94.90
12853;DHT22;6495;51.808;7.478;2023-05-29T09:58:33;16.60;94.90
12853;DHT22;6495;51.808;7.478;2023-05-29T10:01:02;16.70;95.20
12853;DHT22;6495;51.808;7.478;2023-05-29T10:03:30;16.80;95.10
12853;DHT22;6495;51.808;7.478;2023-05-29T10:06:02;16.80;95.00
12853;DHT22;6495;51.808;7.478;2023-05-29T10:08:37;16.80;95.10
12853;DHT22;6495;51.808;7.478;2023-05-29T10:11:08;17.00;95.10
12853;DHT22;6495;51.808;7.478;2023-05-29T10:13:45;17.00;94.90
12853;DHT22;6495;51.808;7.478;2023-05-29T10:16:19;17.10;94.80
12853;DHT22;6495;51.808;7.478;2023-05-29T10:18:53;17.10;94.90
12853;DHT22;6495;51.808;7.478;2023-05-29T10:21:26;17.20;95.00
12853;DHT22;6495;51.808;7.478;2023-05-29T10:24:06;17.30;95.00
12853;DHT22;6495;51.808;7.478;2023-05-29T10:26:38;17.30;95.00
12853;DHT22;6495;51.808;7.478;2023-05-29T10:29:15;17.40;95.00
12853;DHT22;6495;51.808;7.478;2023-05-29T10:32:01;17.60;95.10
12853;DHT22;6495;51.808;7.478;2023-05-29T10:34:42;17.70;94.90
12853;DHT22;6495;51.808;7.478;2023-05-29T10:37:22;17.70;94.80
12853;DHT22;6495;51.808;7.478;2023-05-29T10:40:03;17.80;94.80
12853;DHT22;6495;51.808;7.478;2023-05-29T10:42:44;17.90;94.80
12853;DHT22;6495;51.808;7.478;2023-05-29T10:45:49;18.00;94.60
12853;DHT22;6495;51.808;7.478;2023-05-29T10:48:41;18.10;94.50
12853;DHT22;6495;51.808;7.478;2023-05-29T10:51:27;18.10;94.10
12853;DHT22;6495;51.808;7.478;2023-05-29T10:53:58;18.10;93.90
12853;DHT22;6495;51.808;7.478;2023-05-29T10:56:29;18.10;93.80
12853;DHT22;6495;51.808;7.478;2023-05-29T10:59:00;18.10;93.70
12853;DHT22;6495;51.808;7.478;2023-05-29T11:01:39;18.10;93.60
12853;DHT22;6495;51.808;7.478;2023-05-29T11:04:28;18.10;93.60
12853;DHT22;6495;51.808;7.478;2023-05-29T11:07:34;18.20;93.50
12853;DHT22;6495;51.808;7.478;2023-05-29T11:10:15;18.20;93.40
12853;DHT22;6495;51.808;7.478;2023-05-29T11:12:58;18.30;93.60
12853;DHT22;6495;51.808;7.478;2023-05-29T11:15:29;18.30;93.40
12853;DHT22;6495;51.808;7.478;2023-05-29T11:18:11;18.40;93.20
12853;DHT22;6495;51.808;7.478;2023-05-29T11:20:47;18.40;93.30
12853;DHT22;6495;51.808;7.478;2023-05-29T11:23:32;18.40;93.00
12853;DHT22;6495;51.808;7.478;2023-05-29T11:26:13;18.40;93.40
12853;DHT22;6495;51.808;7.478;2023-05-29T11:28:46;18.50;93.00
12853;DHT22;6495;51.808;7.478;2023-05-29T11:31:17;18.50;92.80
12853;DHT22;6495;51.808;7.478;2023-05-29T11:33:55;18.50;92.60
12853;DHT22;6495;51.808;7.478;2023-05-29T11:36:34;18.50;92.30
12853;DHT22;6495;51.808;7.478;2023-05-29T11:39:09;18.50;92.40
12853;DHT22;6495;51.808;7.478;2023-05-29T11:41:41;18.50;92.30
12853;DHT22;6495;51.808;7.478;2023-05-29T11:44:13;18.60;92.40
12853;DHT22;6495;51.808;7.478;2023-05-29T11:46:59;18.60;92.30
12853;DHT22;6495;51.808;7.478;2023-05-29T11:49:32;18.60;92.20
12853;DHT22;6495;51.808;7.478;2023-05-29T11:52:11;18.60;92.00
12853;DHT22;6495;51.808;7.478;2023-05-29T11:54:49;18.70;92.40
12853;DHT22;6495;51.808;7.478;2023-05-29T11:57:20;18.80;92.30
12853;DHT22;6495;51.808;7.478;2023-05-29T11:59:54;18.80;92.30
12853;DHT22;6495;51.808;7.478;2023-05-29T12:02:25;18.80;92.20
12853;DHT22;6495;51.808;7.478;2023-05-29T12:05:03;18.90;92.20
12853;DHT22;6495;51.808;7.478;2023-05-29T12:07:34;18.90;91.80
12853;DHT22;6495;51.808;7.478;2023-05-29T12:10:10;18.90;91.90
12853;DHT22;6495;51.808;7.478;2023-05-29T12:12:41;19.00;92.00
12853;DHT22;6495;51.808;7.478;2023-05-29T12:15:18;19.00;92.00
12853;DHT22;6495;51.808;7.478;2023-05-29T12:17:54;19.10;92.00
12853;DHT22;6495;51.808;7.478;2023-05-29T12:20:30;19.20;92.10
12853;DHT22;6495;51.808;7.478;2023-05-29T12:23:06;19.30;92.20
12853;DHT22;6495;51.808;7.478;2023-05-29T12:25:51;19.30;92.10
12853;DHT22;6495;51.808;7.478;2023-05-29T12:28:25;19.40;92.10
12853;DHT22;6495;51.808;7.478;2023-05-29T12:31:00;19.50;91.90
12853;DHT22;6495;51.808;7.478;2023-05-29T12:33:33;19.50;91.80
12853;DHT22;6495;51.808;7.478;2023-05-29T12:36:11;19.60;91.50
12853;DHT22;6495;51.808;7.478;2023-05-29T12:38:49;19.60;91.60
12853;DHT22;6495;51.808;7.478;2023-05-29T12:41:26;19.70;91.70
12853;DHT22;6495;51.808;7.478;2023-05-29T12:43:57;19.80;91.60
12853;DHT22;6495;51.808;7.478;2023-05-29T12:46:34;19.80;91.50
12853;DHT22;6495;51.808;7.478;2023-05-29T12:49:12;19.90;91.50
12853;DHT22;6495;51.808;7.478;2023-05-29T12:51:45;19.90;91.10
12853;DHT22;6495;51.808;7.478;2023-05-29T12:54:16;20.00;91.10
12853;DHT22;6495;51.808;7.478;2023-05-29T12:56:45;20.00;91.50
12853;DHT22;6495;51.808;7.478;2023-05-29T12:59:17;20.00;90.90
12853;DHT22;6495;51.808;7.478;2023-05-29T13:01:45;20.00;90.90
12853;DHT22;6495;51.808;7.478;2023-05-29T13:04:16;20.00;90.80
12853;DHT22;6495;51.808;7.478;2023-05-29T13:06:48;20.10;90.70
12853;DHT22;6495;51.808;7.478;2023-05-29T13:09:19;20.10;90.50
12853;DHT22;6495;51.808;7.478;2023-05-29T13:11:51;20.10;90.60
12853;DHT22;6495;51.808;7.478;2023-05-29T13:14:19;20.20;90.80
12853;DHT22;6495;51.808;7.478;2023-05-29T13:16:48;20.20;90.70
12853;DHT22;6495;51.808;7.478;2023-05-29T13:19:16;20.30;90.30
12853;DHT22;6495;51.808;7.478;2023-05-29T13:21:44;20.30;90.20
12853;DHT22;6495;51.808;7.478;2023-05-29T13:24:16;20.30;90.20
12853;DHT22;6495;51.808;7.478;2023-05-29T13:26:44;20.40;90.10
12853;DHT22;6495;51.808;7.478;2023-05-29T13:32:49;20.40;88.60
12853;DHT22;6495;51.808;7.478;2023-05-29T13:35:58;20.40;89.10
12853;DHT22;6495;51.808;7.478;2023-05-29T13:39:40;20.40;88.10
12853;DHT22;6495;51.808;7.478;2023-05-29T13:42:54;20.40;88.40
12853;DHT22;6495;51.808;7.478;2023-05-29T13:46:07;20.40;88.10
12853;DHT22;6495;51.808;7.478;2023-05-29T13:54:17;20.40;87.20
12853;DHT22;6495;51.808;7.478;2023-05-29T14:04:31;20.50;87.10
12853;DHT22;6495;51.808;7.478;2023-05-29T14:07:14;20.50;85.80
12853;DHT22;6495;51.808;7.478;2023-05-29T14:09:44;20.60;85.30
12853;DHT22;6495;51.808;7.478;2023-05-29T14:12:12;20.60;84.60
12853;DHT22;6495;51.808;7.478;2023-05-29T14:14:44;20.60;83.90
12853;DHT22;6495;51.808;7.478;2023-05-29T14:17:13;20.60;83.80
12853;DHT22;6495;51.808;7.478;2023-05-29T14:19:47;20.60;83.50
12853;DHT22;6495;51.808;7.478;2023-05-29T14:22:25;20.70;82.30
12853;DHT22;6495;51.808;7.478;2023-05-29T14:24:53;20.70;81.50
12853;DHT22;6495;51.808;7.478;2023-05-29T14:27:24;20.70;80.60
12853;DHT22;6495;51.808;7.478;2023-05-29T14:29:52;20.70;80.90
12853;DHT22;6495;51.808;7.478;2023-05-29T14:32:20;20.80;80.90
12853;DHT22;6495;51.808;7.478;2023-05-29T14:34:52;20.90;80.20
12853;DHT22;6495;51.808;7.478;2023-05-29T14:37:22;20.90;78.70
12853;DHT22;6495;51.808;7.478;2023-05-29T14:39:51;20.90;78.30
12853;DHT22;6495;51.808;7.478;2023-05-29T14:42:21;21.00;78.10
12853;DHT22;6495;51.808;7.478;2023-05-29T14:44:53;21.00;76.90
12853;DHT22;6495;51.808;7.478;2023-05-29T14:47:23;21.00;76.60
12853;DHT22;6495;51.808;7.478;2023-05-29T14:49:58;21.00;77.20
12853;DHT22;6495;51.808;7.478;2023-05-29T14:52:26;21.10;76.50
12853;DHT22;6495;51.808;7.478;2023-05-29T14:54:57;21.10;75.80
12853;DHT22;6495;51.808;7.478;2023-05-29T14:57:25;21.10;75.30
12853;DHT22;6495;51.808;7.478;2023-05-29T14:59:57;21.20;74.60
12853;DHT22;6495;51.808;7.478;2023-05-29T15:02:27;21.20;73.50
12853;DHT22;6495;51.808;7.478;2023-05-29T15:04:56;21.20;72.20
12853;DHT22;6495;51.808;7.478;2023-05-29T15:07:26;21.20;72.70
12853;DHT22;6495;51.808;7.478;2023-05-29T15:09:56;21.30;72.80
12853;DHT22;6495;51.808;7.478;2023-05-29T15:12:24;21.30;71.90
12853;DHT22;6495;51.808;7.478;2023-05-29T15:14:54;21.30;72.20
12853;DHT22;6495;51.808;7.478;2023-05-29T15:17:25;21.40;71.50
12853;DHT22;6495;51.808;7.478;2023-05-29T15:19:57;21.40;71.20
12853;DHT22;6495;51.808;7.478;2023-05-29T15:22:28;21.40;70.60
12853;DHT22;6495;51.808;7.478;2023-05-29T15:24:57;21.50;70.80
12853;DHT22;6495;51.808;7.478;2023-05-29T15:27:29;21.50;69.10
12853;DHT22;6495;51.808;7.478;2023-05-29T15:30:08;21.50;68.70
12853;DHT22;6495;51.808;7.478;2023-05-29T15:32:38;21.50;67.00
12853;DHT22;6495;51.808;7.478;2023-05-29T15:35:14;21.40;65.60
12853;DHT22;6495;51.808;7.478;2023-05-29T15:37:45;21.30;66.20
12853;DHT22;6495;51.808;7.478;2023-05-29T15:40:15;21.40;65.50
12853;DHT22;6495;51.808;7.478;2023-05-29T15:42:43;21.30;64.80
12853;DHT22;6495;51.808;7.478;2023-05-29T15:45:14;21.30;65.10
12853;DHT22;6495;51.808;7.478;2023-05-29T15:47:43;21.30;65.20
12853;DHT22;6495;51.808;7.478;2023-05-29T15:50:12;21.40;65.60
12853;DHT22;6495;51.808;7.478;2023-05-29T15:52:41;21.50;65.80
12853;DHT22;6495;51.808;7.478;2023-05-29T15:55:21;21.60;65.70
12853;DHT22;6495;51.808;7.478;2023-05-29T15:57:49;21.70;65.00
12853;DHT22;6495;51.808;7.478;2023-05-29T16:00:18;21.70;65.40
12853;DHT22;6495;51.808;7.478;2023-05-29T16:02:47;21.80;64.80
12853;DHT22;6495;51.808;7.478;2023-05-29T16:05:19;21.80;65.10
12853;DHT22;6495;51.808;7.478;2023-05-29T16:07:47;21.90;64.60
12853;DHT22;6495;51.808;7.478;2023-05-29T16:10:16;21.90;64.70
12853;DHT22;6495;51.808;7.478;2023-05-29T16:12:45;21.90;64.50
12853;DHT22;6495;51.808;7.478;2023-05-29T16:15:16;21.90;64.10
12853;DHT22;6495;51.808;7.478;2023-05-29T16:17:45;21.90;63.00
12853;DHT22;6495;51.808;7.478;2023-05-29T16:20:17;21.80;62.40
12853;DHT22;6495;51.808;7.478;2023-05-29T16:23:30;21.80;62.40
12853;DHT22;6495;51.808;7.478;2023-05-29T16:26:14;21.80;60.80
12853;DHT22;6495;51.808;7.478;2023-05-29T16:28:53;21.70;61.40
12853;DHT22;6495;51.808;7.478;2023-05-29T16:31:28;21.60;60.80
12853;DHT22;6495;51.808;7.478;2023-05-29T16:34:01;21.50;60.60
12853;DHT22;6495;51.808;7.478;2023-05-29T16:36:38;21.50;60.60
12853;DHT22;6495;51.808;7.478;2023-05-29T16:39:20;21.40;60.00
12853;DHT22;6495;51.808;7.478;2023-05-29T16:42:23;21.40;59.90
12853;DHT22;6495;51.808;7.478;2023-05-29T16:45:00;21.30;60.30
12853;DHT22;6495;51.808;7.478;2023-05-29T16:47:54;21.30;59.60